ルレオ の空港の天気 - METARとTAF

Lulea / Kallax ( ESPA / LLA ) - スウェーデン ルレオ
飛行場実況気象(Metar)
観測時間08/25 20:50 CEST (08/25 18:50 UTC)
風向・風速西南西 2m/s
視程10km以上
天気現象
なし
気温15℃
湿度94%
気圧1013hPa
METARESPA 251850Z 25004KT CAVOK 15/14 Q1013
過去の天気等 Google飛行場航空写真 Wunderground天気予報

過去48時間のMETAR

飛行場予報(TAF)
発表時間: 8/25 19:30 CEST (8/25 17:30 UTC)
予報対象時間: 25日20時 CEST ~ 26日1時 CEST
風向・風速西南西 4m/s
視程10km以上
全天の8割程度の雲 雲底高度 180m
25日20時 CEST ~ 25日22時 CEST に徐々に
なし
TAF ESPA 251730Z 2518/2523 24008KT 9999 BKN006
BECMG 2518/2520 NSC